Check out our new PWSWeather beta!
PWSweather.com
Personal Weather Stations
Station Observations
PICKERING
North Yorkshire, PickeringGB

North YorkshirePickeringGB

Lat: 54.2494, Lon: -0.7725

Elevation: 192

Station Type: Oregon Scientific WMR100

High Low Average
Temperature 53.4°F11.9°C 44.2°F6.8°C 49.1°F9.5°C
Dew Point 51.8°F11.0°C 37.4°F3.0°C 45.4°F7.4°C
Winds 7.8 mph 12.6 kmh 0.7 mph 1.1 kmh 4.0 mph SE6.4 kmh SE
Wind Gusts 11.0 mph17.7 kmh 2.0 mph3.2 kmh 6.0 mph9.7 kmh
Humidity 92% 77% 87%
Pressure 29.83 in1010.2 mb 28.88 in978.0 mb -
Precipitation 0.69 in17.5 mm - -
Hour Temp Dew Point Humidity Winds Wind Gusts Pressure Precip Precip Rate Daily Precip Total
12:00 AM 45.0°F7.2°C 39.2°F4.0°C 77% 4.5 mph SSE7.2 kmh SSE 8.9 mph14.3 kmh 29.83 in1010.2 mb 0.00 in0.0 mm 0.00 in0.0 mm 0.00 in0.0 mm
12:05 AM 45.0°F7.2°C 39.2°F4.0°C 77% 3.9 mph SSE6.3 kmh SSE 8.9 mph14.3 kmh 29.83 in1010.2 mb 0.00 in0.0 mm 0.00 in0.0 mm 0.00 in0.0 mm
12:10 AM 45.0°F7.2°C 39.2°F4.0°C 77% 3.5 mph SSE5.6 kmh SSE 3.8 mph6.1 kmh 29.83 in1010.2 mb 0.00 in0.0 mm 0.00 in0.0 mm 0.00 in0.0 mm
12:15 AM 45.0°F7.2°C 39.2°F4.0°C 77% 3.6 mph SSE5.8 kmh SSE 3.8 mph6.1 kmh 29.83 in1010.2 mb 0.00 in0.0 mm 0.00 in0.0 mm 0.00 in0.0 mm
12:20 AM 45.0°F7.2°C 39.2°F4.0°C 77% 3.5 mph SE5.6 kmh SE 4.3 mph6.9 kmh 29.83 in1010.2 mb 0.00 in0.0 mm 0.00 in0.0 mm 0.00 in0.0 mm
12:25 AM 44.8°F7.1°C 37.4°F3.0°C 77% 3.5 mph SE5.6 kmh SE 4.3 mph6.9 kmh 29.83 in1010.2 mb 0.00 in0.0 mm 0.00 in0.0 mm 0.00 in0.0 mm
12:30 AM 44.8°F7.1°C 37.4°F3.0°C 77% 3.3 mph SE5.3 kmh SE 3.6 mph5.8 kmh 29.83 in1010.2 mb 0.00 in0.0 mm 0.00 in0.0 mm 0.00 in0.0 mm
12:35 AM 44.8°F7.1°C 37.4°F3.0°C 78% 3.2 mph SE5.1 kmh SE 3.6 mph5.8 kmh 29.83 in1010.2 mb 0.00 in0.0 mm 0.00 in0.0 mm 0.00 in0.0 mm
12:40 AM 44.8°F7.1°C 37.4°F3.0°C 78% 3.2 mph SSE5.1 kmh SSE 4.0 mph6.4 kmh 29.80 in1009.1 mb 0.00 in0.0 mm 0.00 in0.0 mm 0.00 in0.0 mm
12:45 AM 44.8°F7.1°C 37.4°F3.0°C 78% 3.5 mph SE5.6 kmh SE 4.5 mph7.2 kmh 29.80 in1009.1 mb 0.00 in0.0 mm 0.00 in0.0 mm 0.00 in0.0 mm
12:50 AM 44.8°F7.1°C 37.4°F3.0°C 78% 3.8 mph SE6.1 kmh SE 4.5 mph7.2 kmh 29.80 in1009.1 mb 0.00 in0.0 mm 0.00 in0.0 mm 0.00 in0.0 mm
12:55 AM 44.8°F7.1°C 37.4°F3.0°C 78% 4.0 mph SSE6.4 kmh SSE 4.5 mph7.2 kmh 29.80 in1009.1 mb 0.00 in0.0 mm 0.00 in0.0 mm 0.00 in0.0 mm
01:00 AM 44.8°F7.1°C 37.4°F3.0°C 78% 3.8 mph SSE6.1 kmh SSE 3.8 mph6.1 kmh 29.80 in1009.1 mb 0.00 in0.0 mm 0.00 in0.0 mm 0.00 in0.0 mm
01:05 AM 44.8°F7.1°C 37.4°F3.0°C 78% 3.8 mph SSE6.1 kmh SSE 3.8 mph6.1 kmh 29.80 in1009.1 mb 0.00 in0.0 mm 0.00 in0.0 mm 0.00 in0.0 mm
01:10 AM 44.8°F7.1°C 37.4°F3.0°C 78% 4.4 mph SSE7.1 kmh SSE 5.6 mph9.0 kmh 29.80 in1009.1 mb 0.00 in0.0 mm 0.00 in0.0 mm 0.00 in0.0 mm
01:15 AM 44.6°F7.0°C 37.4°F3.0°C 78% 4.3 mph SE6.9 kmh SE 5.6 mph9.0 kmh 29.80 in1009.1 mb 0.00 in0.0 mm 0.00 in0.0 mm 0.00 in0.0 mm
01:20 AM 44.6°F7.0°C 39.2°F4.0°C 79% 3.8 mph ESE6.1 kmh ESE 5.4 mph8.7 kmh 29.80 in1009.1 mb 0.00 in0.0 mm 0.00 in0.0 mm 0.00 in0.0 mm
01:25 AM 44.6°F7.0°C 39.2°F4.0°C 79% 3.4 mph SE5.5 kmh SE 5.4 mph8.7 kmh 29.80 in1009.1 mb 0.00 in0.0 mm 0.00 in0.0 mm 0.00 in0.0 mm
01:30 AM 44.6°F7.0°C 39.2°F4.0°C 79% 3.2 mph SE5.1 kmh SE 5.4 mph8.7 kmh 29.80 in1009.1 mb 0.00 in0.0 mm 0.00 in0.0 mm 0.00 in0.0 mm
01:35 AM 44.6°F7.0°C 39.2°F4.0°C 79% 3.4 mph SE5.5 kmh SE 5.4 mph8.7 kmh 29.80 in1009.1 mb 0.00 in0.0 mm 0.00 in0.0 mm 0.00 in0.0 mm
01:40 AM 44.6°F7.0°C 39.2°F4.0°C 79% 3.4 mph SE5.5 kmh SE 5.4 mph8.7 kmh 29.77 in1008.1 mb 0.00 in0.0 mm 0.00 in0.0 mm 0.00 in0.0 mm
01:45 AM 44.4°F6.9°C 39.2°F4.0°C 79% 3.0 mph SE4.8 kmh SE 6.0 mph9.7 kmh 29.77 in1008.1 mb 0.00 in0.0 mm 0.00 in0.0 mm 0.00 in0.0 mm
01:50 AM 44.4°F6.9°C 39.2°F4.0°C 79% 3.2 mph SE5.1 kmh SE 6.0 mph9.7 kmh 29.77 in1008.1 mb 0.00 in0.0 mm 0.00 in0.0 mm 0.00 in0.0 mm
01:55 AM 44.4°F6.9°C 39.2°F4.0°C 79% 4.2 mph SSE6.8 kmh SSE 6.0 mph9.7 kmh 29.74 in1007.1 mb 0.00 in0.0 mm 0.00 in0.0 mm 0.00 in0.0 mm
02:00 AM 44.4°F6.9°C 39.2°F4.0°C 79% 4.8 mph SSE7.7 kmh SSE 6.0 mph9.7 kmh 29.74 in1007.1 mb 0.00 in0.0 mm 0.00 in0.0 mm 0.00 in0.0 mm
02:05 AM 44.4°F6.9°C 39.2°F4.0°C 79% 4.5 mph SE7.2 kmh SE 5.4 mph8.7 kmh 29.74 in1007.1 mb 0.00 in0.0 mm 0.00 in0.0 mm 0.00 in0.0 mm
02:10 AM 44.2°F6.8°C 37.4°F3.0°C 79% 3.7 mph SE6.0 kmh SE 4.9 mph7.9 kmh 29.74 in1007.1 mb 0.00 in0.0 mm 0.00 in0.0 mm 0.00 in0.0 mm
02:15 AM 44.2°F6.8°C 39.2°F4.0°C 80% 3.3 mph SE5.3 kmh SE 4.0 mph6.4 kmh 29.74 in1007.1 mb 0.06 in1.5 mm 0.72 in18.3 mm 0.06 in1.5 mm
02:20 AM 44.2°F6.8°C 39.2°F4.0°C 80% 2.9 mph SSE4.7 kmh SSE 4.0 mph6.4 kmh 29.74 in1007.1 mb 0.06 in1.5 mm 0.00 in0.0 mm 0.06 in1.5 mm
02:25 AM 44.2°F6.8°C 39.2°F4.0°C 80% 2.7 mph SSE4.3 kmh SSE 2.7 mph4.3 kmh 29.74 in1007.1 mb 0.06 in1.5 mm 0.00 in0.0 mm 0.06 in1.5 mm
02:30 AM 44.2°F6.8°C 39.2°F4.0°C 80% 2.6 mph SSE4.2 kmh SSE 2.7 mph4.3 kmh 29.74 in1007.1 mb 0.06 in1.5 mm 0.00 in0.0 mm 0.06 in1.5 mm
02:35 AM 44.2°F6.8°C 39.2°F4.0°C 80% 2.7 mph S4.3 kmh S 3.4 mph5.5 kmh 29.74 in1007.1 mb 0.06 in1.5 mm 0.00 in0.0 mm 0.06 in1.5 mm
02:40 AM 44.2°F6.8°C 39.2°F4.0°C 80% 2.8 mph SSE4.5 kmh SSE 3.4 mph5.5 kmh 29.71 in1006.1 mb 0.06 in1.5 mm 0.00 in0.0 mm 0.06 in1.5 mm
02:45 AM 44.2°F6.8°C 39.2°F4.0°C 80% 3.0 mph SSE4.8 kmh SSE 4.0 mph6.4 kmh 29.71 in1006.1 mb 0.06 in1.5 mm 0.00 in0.0 mm 0.06 in1.5 mm
02:50 AM 44.2°F6.8°C 39.2°F4.0°C 80% 2.5 mph SE4.0 kmh SE 4.0 mph6.4 kmh 29.71 in1006.1 mb 0.06 in1.5 mm 0.00 in0.0 mm 0.06 in1.5 mm
02:55 AM 44.2°F6.8°C 39.2°F4.0°C 80% 2.7 mph ESE4.3 kmh ESE 4.9 mph7.9 kmh 29.71 in1006.1 mb 0.06 in1.5 mm 0.00 in0.0 mm 0.06 in1.5 mm
03:00 AM 44.2°F6.8°C 39.2°F4.0°C 80% 3.2 mph SE5.1 kmh SE 4.9 mph7.9 kmh 29.71 in1006.1 mb 0.06 in1.5 mm 0.00 in0.0 mm 0.06 in1.5 mm
03:05 AM 44.2°F6.8°C 39.2°F4.0°C 81% 3.0 mph SSE4.8 kmh SSE 3.8 mph6.1 kmh 29.71 in1006.1 mb 0.06 in1.5 mm 0.00 in0.0 mm 0.06 in1.5 mm
03:10 AM 44.2°F6.8°C 39.2°F4.0°C 81% 3.6 mph SE5.8 kmh SE 3.8 mph6.1 kmh 29.71 in1006.1 mb 0.06 in1.5 mm 0.00 in0.0 mm 0.06 in1.5 mm
03:15 AM 44.2°F6.8°C 39.2°F4.0°C 81% 3.7 mph SE6.0 kmh SE 4.0 mph6.4 kmh 29.68 in1005.1 mb 0.00 in0.0 mm 0.00 in0.0 mm 0.06 in1.5 mm
03:20 AM 44.2°F6.8°C 39.2°F4.0°C 81% 4.7 mph SE7.6 kmh SE 6.9 mph11.1 kmh 29.68 in1005.1 mb 0.00 in0.0 mm 0.00 in0.0 mm 0.06 in1.5 mm
03:25 AM 44.2°F6.8°C 39.2°F4.0°C 81% 5.3 mph SE8.5 kmh SE 6.9 mph11.1 kmh 29.68 in1005.1 mb 0.00 in0.0 mm 0.00 in0.0 mm 0.06 in1.5 mm
03:30 AM 44.2°F6.8°C 39.2°F4.0°C 81% 4.8 mph SE7.7 kmh SE 6.9 mph11.1 kmh 29.68 in1005.1 mb 0.00 in0.0 mm 0.00 in0.0 mm 0.06 in1.5 mm
03:35 AM 44.2°F6.8°C 39.2°F4.0°C 81% 4.2 mph SE6.8 kmh SE 5.8 mph9.3 kmh 29.68 in1005.1 mb 0.00 in0.0 mm 0.00 in0.0 mm 0.06 in1.5 mm
03:40 AM 44.2°F6.8°C 39.2°F4.0°C 81% 4.3 mph SE6.9 kmh SE 5.8 mph9.3 kmh 29.65 in1004.1 mb 0.00 in0.0 mm 0.00 in0.0 mm 0.06 in1.5 mm
03:45 AM 44.2°F6.8°C 39.2°F4.0°C 81% 4.4 mph ESE7.1 kmh ESE 5.8 mph9.3 kmh 29.65 in1004.1 mb 0.00 in0.0 mm 0.00 in0.0 mm 0.06 in1.5 mm
03:50 AM 44.2°F6.8°C 39.2°F4.0°C 81% 3.8 mph SE6.1 kmh SE 5.4 mph8.7 kmh 29.65 in1004.1 mb 0.00 in0.0 mm 0.00 in0.0 mm 0.06 in1.5 mm
03:55 AM 44.2°F6.8°C 39.2°F4.0°C 82% 3.8 mph SE6.1 kmh SE 5.4 mph8.7 kmh 29.65 in1004.1 mb 0.00 in0.0 mm 0.00 in0.0 mm 0.06 in1.5 mm
04:00 AM 44.2°F6.8°C 39.2°F4.0°C 82% 3.5 mph SE5.6 kmh SE 5.4 mph8.7 kmh 29.65 in1004.1 mb 0.00 in0.0 mm 0.00 in0.0 mm 0.06 in1.5 mm
04:05 AM 44.2°F6.8°C 39.2°F4.0°C 82% 3.6 mph SE5.8 kmh SE 5.4 mph8.7 kmh 29.65 in1004.1 mb 0.00 in0.0 mm 0.00 in0.0 mm 0.06 in1.5 mm
04:10 AM 44.2°F6.8°C 39.2°F4.0°C 82% 4.3 mph SE6.9 kmh SE 5.4 mph8.7 kmh 29.62 in1003.0 mb 0.00 in0.0 mm 0.00 in0.0 mm 0.06 in1.5 mm
04:15 AM 44.2°F6.8°C 39.2°F4.0°C 82% 4.1 mph SE6.6 kmh SE 4.9 mph7.9 kmh 29.62 in1003.0 mb 0.00 in0.0 mm 0.00 in0.0 mm 0.06 in1.5 mm
04:20 AM 44.2°F6.8°C 39.2°F4.0°C 82% 4.6 mph SE7.4 kmh SE 7.4 mph11.9 kmh 29.62 in1003.0 mb 0.00 in0.0 mm 0.00 in0.0 mm 0.06 in1.5 mm
04:25 AM 44.2°F6.8°C 39.2°F4.0°C 82% 4.8 mph SE7.7 kmh SE 7.4 mph11.9 kmh 29.62 in1003.0 mb 0.00 in0.0 mm 0.00 in0.0 mm 0.06 in1.5 mm
04:30 AM 44.2°F6.8°C 39.2°F4.0°C 82% 3.7 mph SE6.0 kmh SE 4.9 mph7.9 kmh 29.62 in1003.0 mb 0.00 in0.0 mm 0.00 in0.0 mm 0.06 in1.5 mm
04:35 AM 44.2°F6.8°C 39.2°F4.0°C 82% 3.2 mph SE5.1 kmh SE 4.3 mph6.9 kmh 29.62 in1003.0 mb 0.00 in0.0 mm 0.00 in0.0 mm 0.06 in1.5 mm
04:40 AM 44.4°F6.9°C 39.2°F4.0°C 82% 3.4 mph SE5.5 kmh SE 6.0 mph9.7 kmh 29.62 in1003.0 mb 0.00 in0.0 mm 0.00 in0.0 mm 0.06 in1.5 mm
04:45 AM 44.4°F6.9°C 39.2°F4.0°C 82% 3.9 mph SE6.3 kmh SE 6.0 mph9.7 kmh 29.62 in1003.0 mb 0.00 in0.0 mm 0.00 in0.0 mm 0.06 in1.5 mm
04:50 AM 44.4°F6.9°C 39.2°F4.0°C 82% 3.8 mph SE6.1 kmh SE 5.4 mph8.7 kmh 29.62 in1003.0 mb 0.00 in0.0 mm 0.00 in0.0 mm 0.06 in1.5 mm
04:55 AM 44.4°F6.9°C 39.2°F4.0°C 82% 3.7 mph SE6.0 kmh SE 5.4 mph8.7 kmh 29.62 in1003.0 mb 0.00 in0.0 mm 0.00 in0.0 mm 0.06 in1.5 mm
05:00 AM 44.4°F6.9°C 39.2°F4.0°C 82% 3.6 mph SE5.8 kmh SE 5.4 mph8.7 kmh 29.62 in1003.0 mb 0.00 in0.0 mm 0.00 in0.0 mm 0.06 in1.5 mm
05:05 AM 44.4°F6.9°C 39.2°F4.0°C 83% 3.7 mph SE6.0 kmh SE 5.4 mph8.7 kmh 29.62 in1003.0 mb 0.06 in1.5 mm 0.72 in18.3 mm 0.11 in2.8 mm
05:10 AM 44.4°F6.9°C 39.2°F4.0°C 83% 4.9 mph SE7.9 kmh SE 8.5 mph13.7 kmh 29.59 in1002.0 mb 0.06 in1.5 mm 0.00 in0.0 mm 0.11 in2.8 mm
05:15 AM 44.4°F6.9°C 39.2°F4.0°C 83% 5.0 mph SE8.0 kmh SE 8.5 mph13.7 kmh 29.59 in1002.0 mb 0.06 in1.5 mm 0.00 in0.0 mm 0.11 in2.8 mm
05:20 AM 44.4°F6.9°C 39.2°F4.0°C 83% 3.6 mph SE5.8 kmh SE 5.6 mph9.0 kmh 29.59 in1002.0 mb 0.06 in1.5 mm 0.00 in0.0 mm 0.11 in2.8 mm
05:25 AM 44.4°F6.9°C 39.2°F4.0°C 83% 3.3 mph SE5.3 kmh SE 6.5 mph10.5 kmh 29.59 in1002.0 mb 0.06 in1.5 mm 0.00 in0.0 mm 0.11 in2.8 mm
05:30 AM 44.6°F7.0°C 39.2°F4.0°C 83% 3.8 mph ESE6.1 kmh ESE 6.5 mph10.5 kmh 29.59 in1002.0 mb 0.06 in1.5 mm 0.00 in0.0 mm 0.11 in2.8 mm
05:35 AM 44.4°F6.9°C 39.2°F4.0°C 83% 4.8 mph ESE7.7 kmh ESE 6.5 mph10.5 kmh 29.59 in1002.0 mb 0.11 in2.8 mm 0.60 in15.2 mm 0.17 in4.3 mm
05:40 AM 44.6°F7.0°C 39.2°F4.0°C 83% 4.2 mph SE6.8 kmh SE 6.0 mph9.7 kmh 29.59 in1002.0 mb 0.11 in2.8 mm 0.00 in0.0 mm 0.17 in4.3 mm
05:45 AM 44.6°F7.0°C 39.2°F4.0°C 83% 3.8 mph SE6.1 kmh SE 8.1 mph13.0 kmh 29.59 in1002.0 mb 0.11 in2.8 mm 0.00 in0.0 mm 0.17 in4.3 mm
05:50 AM 44.6°F7.0°C 39.2°F4.0°C 83% 4.0 mph SE6.4 kmh SE 8.1 mph13.0 kmh 29.59 in1002.0 mb 0.11 in2.8 mm 0.00 in0.0 mm 0.17 in4.3 mm
05:55 AM 44.6°F7.0°C 39.2°F4.0°C 83% 3.6 mph SE5.8 kmh SE 5.8 mph9.3 kmh 29.56 in1001.0 mb 0.17 in4.3 mm 0.72 in18.3 mm 0.22 in5.6 mm
06:00 AM 44.6°F7.0°C 41.0°F5.0°C 84% 3.8 mph SE6.1 kmh SE 7.8 mph12.6 kmh 29.56 in1001.0 mb 0.17 in4.3 mm 0.00 in0.0 mm 0.22 in5.6 mm
06:05 AM 44.6°F7.0°C 41.0°F5.0°C 84% 4.4 mph ESE7.1 kmh ESE 7.8 mph12.6 kmh 29.56 in1001.0 mb 0.11 in2.8 mm 0.00 in0.0 mm 0.22 in5.6 mm
06:10 AM 44.6°F7.0°C 41.0°F5.0°C 84% 5.1 mph SE8.2 kmh SE 7.8 mph12.6 kmh 29.56 in1001.0 mb 0.11 in2.8 mm 0.00 in0.0 mm 0.22 in5.6 mm
06:15 AM 44.6°F7.0°C 41.0°F5.0°C 84% 4.4 mph SSE7.1 kmh SSE 6.0 mph9.7 kmh 29.56 in1001.0 mb 0.11 in2.8 mm 0.00 in0.0 mm 0.22 in5.6 mm
06:20 AM 44.6°F7.0°C 41.0°F5.0°C 84% 4.0 mph SE6.4 kmh SE 5.8 mph9.3 kmh 29.56 in1001.0 mb 0.11 in2.8 mm 0.00 in0.0 mm 0.22 in5.6 mm
06:25 AM 44.6°F7.0°C 41.0°F5.0°C 84% 3.5 mph SE5.6 kmh SE 4.9 mph7.9 kmh 29.56 in1001.0 mb 0.17 in4.3 mm 0.72 in18.3 mm 0.28 in7.1 mm
06:30 AM 44.6°F7.0°C 41.0°F5.0°C 84% 3.3 mph SE5.3 kmh SE 4.3 mph6.9 kmh 29.56 in1001.0 mb 0.17 in4.3 mm 0.00 in0.0 mm 0.28 in7.1 mm
06:35 AM 44.6°F7.0°C 41.0°F5.0°C 84% 3.8 mph SE6.1 kmh SE 5.6 mph9.0 kmh 29.56 in1001.0 mb 0.11 in2.8 mm 0.00 in0.0 mm 0.28 in7.1 mm
06:40 AM 44.6°F7.0°C 41.0°F5.0°C 84% 3.5 mph SE5.6 kmh SE 5.6 mph9.0 kmh 29.53 in1000.0 mb 0.11 in2.8 mm 0.00 in0.0 mm 0.28 in7.1 mm
06:45 AM 44.6°F7.0°C 41.0°F5.0°C 84% 2.4 mph SE3.9 kmh SE 4.3 mph6.9 kmh 29.53 in1000.0 mb 0.11 in2.8 mm 0.00 in0.0 mm 0.28 in7.1 mm
06:50 AM 44.6°F7.0°C 41.0°F5.0°C 84% 2.3 mph SE3.7 kmh SE 3.8 mph6.1 kmh 29.53 in1000.0 mb 0.11 in2.8 mm 0.00 in0.0 mm 0.28 in7.1 mm
06:55 AM 44.6°F7.0°C 41.0°F5.0°C 84% 3.0 mph SE4.8 kmh SE 4.0 mph6.4 kmh 29.53 in1000.0 mb 0.06 in1.5 mm 0.00 in0.0 mm 0.28 in7.1 mm
07:00 AM 44.6°F7.0°C 41.0°F5.0°C 84% 3.4 mph SE5.5 kmh SE 4.0 mph6.4 kmh 29.53 in1000.0 mb 0.06 in1.5 mm 0.00 in0.0 mm 0.28 in7.1 mm
07:05 AM 44.8°F7.1°C 41.0°F5.0°C 84% 4.0 mph SE6.4 kmh SE 5.8 mph9.3 kmh 29.53 in1000.0 mb 0.06 in1.5 mm 0.00 in0.0 mm 0.28 in7.1 mm
07:10 AM 44.8°F7.1°C 41.0°F5.0°C 84% 3.9 mph SE6.3 kmh SE 6.3 mph10.1 kmh 29.53 in1000.0 mb 0.06 in1.5 mm 0.00 in0.0 mm 0.28 in7.1 mm
07:15 AM 44.8°F7.1°C 41.0°F5.0°C 85% 3.7 mph SE6.0 kmh SE 6.3 mph10.1 kmh 29.53 in1000.0 mb 0.06 in1.5 mm 0.00 in0.0 mm 0.28 in7.1 mm
07:20 AM 44.8°F7.1°C 41.0°F5.0°C 85% 3.6 mph SE5.8 kmh SE 4.9 mph7.9 kmh 29.53 in1000.0 mb 0.06 in1.5 mm 0.00 in0.0 mm 0.28 in7.1 mm
07:25 AM 44.8°F7.1°C 41.0°F5.0°C 85% 4.0 mph SE6.4 kmh SE 7.8 mph12.6 kmh 29.50 in999.0 mb 0.00 in0.0 mm 0.00 in0.0 mm 0.28 in7.1 mm
07:30 AM 45.0°F7.2°C 41.0°F5.0°C 85% 4.4 mph ESE7.1 kmh ESE 7.8 mph12.6 kmh 29.50 in999.0 mb 0.00 in0.0 mm 0.00 in0.0 mm 0.28 in7.1 mm
07:35 AM 45.0°F7.2°C 41.0°F5.0°C 85% 4.4 mph ESE7.1 kmh ESE 7.8 mph12.6 kmh 29.50 in999.0 mb 0.00 in0.0 mm 0.00 in0.0 mm 0.28 in7.1 mm
07:40 AM 45.0°F7.2°C 41.0°F5.0°C 85% 3.6 mph E5.8 kmh E 4.9 mph7.9 kmh 29.50 in999.0 mb 0.00 in0.0 mm 0.00 in0.0 mm 0.28 in7.1 mm
07:45 AM 45.0°F7.2°C 41.0°F5.0°C 85% 4.3 mph ESE6.9 kmh ESE 6.0 mph9.7 kmh 29.50 in999.0 mb 0.06 in1.5 mm 0.72 in18.3 mm 0.34 in8.6 mm
07:50 AM 45.1°F7.3°C 41.0°F5.0°C 85% 4.6 mph SE7.4 kmh SE 6.0 mph9.7 kmh 29.50 in999.0 mb 0.06 in1.5 mm 0.00 in0.0 mm 0.34 in8.6 mm
07:55 AM 45.1°F7.3°C 41.0°F5.0°C 85% 4.7 mph SE7.6 kmh SE 8.1 mph13.0 kmh 29.50 in999.0 mb 0.06 in1.5 mm 0.00 in0.0 mm 0.34 in8.6 mm
08:00 AM 45.1°F7.3°C 41.0°F5.0°C 85% 5.3 mph SE8.5 kmh SE 8.1 mph13.0 kmh 29.50 in999.0 mb 0.06 in1.5 mm 0.00 in0.0 mm 0.34 in8.6 mm
08:05 AM 45.3°F7.4°C 41.0°F5.0°C 85% 4.9 mph SE7.9 kmh SE 7.4 mph11.9 kmh 29.50 in999.0 mb 0.06 in1.5 mm 0.00 in0.0 mm 0.34 in8.6 mm
08:10 AM 45.3°F7.4°C 41.0°F5.0°C 85% 4.1 mph SE6.6 kmh SE 7.4 mph11.9 kmh 29.47 in998.0 mb 0.06 in1.5 mm 0.00 in0.0 mm 0.34 in8.6 mm
08:15 AM 45.3°F7.4°C 41.0°F5.0°C 85% 3.6 mph SE5.8 kmh SE 4.7 mph7.6 kmh 29.47 in998.0 mb 0.06 in1.5 mm 0.00 in0.0 mm 0.34 in8.6 mm
08:20 AM 45.5°F7.5°C 42.8°F6.0°C 85% 5.0 mph SE8.0 kmh SE 5.6 mph9.0 kmh 29.47 in998.0 mb 0.06 in1.5 mm 0.00 in0.0 mm 0.34 in8.6 mm
08:25 AM 45.7°F7.6°C 42.8°F6.0°C 85% 5.2 mph SE8.4 kmh SE 5.6 mph9.0 kmh 29.47 in998.0 mb 0.06 in1.5 mm 0.00 in0.0 mm 0.34 in8.6 mm
08:30 AM 45.7°F7.6°C 42.8°F6.0°C 85% 5.2 mph SE8.4 kmh SE 6.9 mph11.1 kmh 29.47 in998.0 mb 0.06 in1.5 mm 0.00 in0.0 mm 0.34 in8.6 mm
08:35 AM 45.9°F7.7°C 42.8°F6.0°C 85% 5.3 mph SE8.5 kmh SE 6.9 mph11.1 kmh 29.47 in998.0 mb 0.06 in1.5 mm 0.00 in0.0 mm 0.34 in8.6 mm
08:40 AM 45.9°F7.7°C 42.8°F6.0°C 85% 5.6 mph SE9.0 kmh SE 6.9 mph11.1 kmh 29.47 in998.0 mb 0.06 in1.5 mm 0.00 in0.0 mm 0.34 in8.6 mm
08:50 AM 46.0°F7.8°C 42.8°F6.0°C 85% 4.4 mph ESE7.1 kmh ESE 5.6 mph9.0 kmh 29.47 in998.0 mb 0.00 in0.0 mm 0.00 in0.0 mm 0.34 in8.6 mm
08:55 AM 46.0°F7.8°C 42.8°F6.0°C 85% 4.3 mph ESE6.9 kmh ESE 5.4 mph8.7 kmh 29.45 in997.3 mb 0.00 in0.0 mm 0.00 in0.0 mm 0.34 in8.6 mm
09:00 AM 46.2°F7.9°C 42.8°F6.0°C 85% 4.8 mph SE7.7 kmh SE 8.5 mph13.7 kmh 29.45 in997.3 mb 0.00 in0.0 mm 0.00 in0.0 mm 0.34 in8.6 mm
09:05 AM 46.2°F7.9°C 42.8°F6.0°C 85% 4.9 mph SE7.9 kmh SE 8.5 mph13.7 kmh 29.45 in997.3 mb 0.00 in0.0 mm 0.00 in0.0 mm 0.34 in8.6 mm
09:10 AM 46.4°F8.0°C 42.8°F6.0°C 85% 5.3 mph ESE8.5 kmh ESE 7.4 mph11.9 kmh 29.45 in997.3 mb 0.00 in0.0 mm 0.00 in0.0 mm 0.34 in8.6 mm
09:15 AM 46.4°F8.0°C 42.8°F6.0°C 85% 5.7 mph ESE9.2 kmh ESE 7.4 mph11.9 kmh 29.45 in997.3 mb 0.00 in0.0 mm 0.00 in0.0 mm 0.34 in8.6 mm
09:20 AM 46.6°F8.1°C 42.8°F6.0°C 86% 5.1 mph SE8.2 kmh SE 7.4 mph11.9 kmh 29.45 in997.3 mb 0.07 in1.8 mm 0.84 in21.3 mm 0.41 in10.4 mm
09:25 AM 46.8°F8.2°C 42.8°F6.0°C 86% 4.6 mph ESE7.4 kmh ESE 6.3 mph10.1 kmh 29.41 in995.9 mb 0.07 in1.8 mm 0.00 in0.0 mm 0.41 in10.4 mm
09:30 AM 46.8°F8.2°C 42.8°F6.0°C 86% 4.3 mph ESE6.9 kmh ESE 6.3 mph10.1 kmh 29.41 in995.9 mb 0.07 in1.8 mm 0.00 in0.0 mm 0.41 in10.4 mm
09:35 AM 46.8°F8.2°C 42.8°F6.0°C 86% 4.5 mph ESE7.2 kmh ESE 5.4 mph8.7 kmh 29.41 in995.9 mb 0.07 in1.8 mm 0.00 in0.0 mm 0.41 in10.4 mm
09:40 AM 46.9°F8.3°C 42.8°F6.0°C 86% 4.2 mph ESE6.8 kmh ESE 5.4 mph8.7 kmh 29.41 in995.9 mb 0.07 in1.8 mm 0.00 in0.0 mm 0.41 in10.4 mm
09:45 AM 46.9°F8.3°C 42.8°F6.0°C 86% 3.9 mph ESE6.3 kmh ESE 4.9 mph7.9 kmh 29.41 in995.9 mb 0.07 in1.8 mm 0.00 in0.0 mm 0.41 in10.4 mm
09:50 AM 47.1°F8.4°C 42.8°F6.0°C 86% 4.1 mph SE6.6 kmh SE 4.9 mph7.9 kmh 29.41 in995.9 mb 0.07 in1.8 mm 0.00 in0.0 mm 0.41 in10.4 mm
09:55 AM 47.1°F8.4°C 44.6°F7.0°C 87% 4.5 mph SE7.2 kmh SE 5.4 mph8.7 kmh 29.39 in995.3 mb 0.07 in1.8 mm 0.00 in0.0 mm 0.41 in10.4 mm
10:00 AM 47.3°F8.5°C 44.6°F7.0°C 87% 4.4 mph E7.1 kmh E 5.4 mph8.7 kmh 29.39 in995.3 mb 0.07 in1.8 mm 0.00 in0.0 mm 0.41 in10.4 mm
10:05 AM 47.5°F8.6°C 44.6°F7.0°C 86% 4.0 mph ENE6.4 kmh ENE 4.0 mph6.4 kmh 29.39 in995.3 mb 0.07 in1.8 mm 0.00 in0.0 mm 0.41 in10.4 mm
10:10 AM 47.7°F8.7°C 44.6°F7.0°C 86% 4.8 mph SE7.7 kmh SE 6.0 mph9.7 kmh 29.39 in995.3 mb 0.07 in1.8 mm 0.00 in0.0 mm 0.41 in10.4 mm
10:15 AM 47.7°F8.7°C 44.6°F7.0°C 86% 5.5 mph SSE8.9 kmh SSE 6.0 mph9.7 kmh 29.39 in995.3 mb 0.07 in1.8 mm 0.00 in0.0 mm 0.41 in10.4 mm
10:20 AM 47.8°F8.8°C 44.6°F7.0°C 86% 6.3 mph SE10.1 kmh SE 7.6 mph12.2 kmh 29.39 in995.3 mb 0.00 in0.0 mm 0.00 in0.0 mm 0.41 in10.4 mm
10:25 AM 48.0°F8.9°C 44.6°F7.0°C 86% 6.2 mph SE10.0 kmh SE 7.8 mph12.6 kmh 29.39 in995.3 mb 0.00 in0.0 mm 0.00 in0.0 mm 0.41 in10.4 mm
10:30 AM 48.2°F9.0°C 44.6°F7.0°C 87% 6.6 mph SE10.6 kmh SE 7.8 mph12.6 kmh 29.39 in995.3 mb 0.06 in1.5 mm 0.72 in18.3 mm 0.46 in11.7 mm
10:35 AM 48.2°F9.0°C 44.6°F7.0°C 87% 7.8 mph SE12.6 kmh SE 7.8 mph12.6 kmh 29.39 in995.3 mb 0.06 in1.5 mm 0.00 in0.0 mm 0.46 in11.7 mm
10:40 AM 48.4°F9.1°C 44.6°F7.0°C 87% 7.8 mph SE12.6 kmh SE 7.8 mph12.6 kmh 29.36 in994.2 mb 0.06 in1.5 mm 0.00 in0.0 mm 0.46 in11.7 mm
10:45 AM 48.6°F9.2°C 46.4°F8.0°C 87% 7.8 mph SE12.6 kmh SE 7.8 mph12.6 kmh 29.36 in994.2 mb 0.06 in1.5 mm 0.00 in0.0 mm 0.46 in11.7 mm
10:50 AM 48.7°F9.3°C 46.4°F8.0°C 87% 7.8 mph SE12.6 kmh SE 7.8 mph12.6 kmh 29.36 in994.2 mb 0.06 in1.5 mm 0.00 in0.0 mm 0.46 in11.7 mm
10:55 AM 48.7°F9.3°C 46.4°F8.0°C 87% 7.8 mph SE12.6 kmh SE 7.8 mph12.6 kmh 29.36 in994.2 mb 0.06 in1.5 mm 0.00 in0.0 mm 0.46 in11.7 mm
11:00 AM 48.9°F9.4°C 46.4°F8.0°C 87% 7.8 mph SE12.6 kmh SE 7.8 mph12.6 kmh 29.36 in994.2 mb 0.06 in1.5 mm 0.00 in0.0 mm 0.46 in11.7 mm
11:05 AM 49.1°F9.5°C 46.4°F8.0°C 87% 7.8 mph SE12.6 kmh SE 7.8 mph12.6 kmh 29.36 in994.2 mb 0.06 in1.5 mm 0.00 in0.0 mm 0.46 in11.7 mm
11:10 AM 49.3°F9.6°C 46.4°F8.0°C 87% 7.8 mph SSE12.6 kmh SSE 7.8 mph12.6 kmh 29.36 in994.2 mb 0.11 in2.8 mm 0.60 in15.2 mm 0.52 in13.2 mm
11:15 AM 49.5°F9.7°C 46.4°F8.0°C 87% 5.6 mph SE9.0 kmh SE 7.8 mph12.6 kmh 29.36 in994.2 mb 0.11 in2.8 mm 0.00 in0.0 mm 0.52 in13.2 mm
11:20 AM 49.5°F9.7°C 46.4°F8.0°C 88% 5.5 mph SSE8.9 kmh SSE 7.8 mph12.6 kmh 29.36 in994.2 mb 0.11 in2.8 mm 0.00 in0.0 mm 0.52 in13.2 mm
11:25 AM 49.6°F9.8°C 46.4°F8.0°C 88% 5.4 mph SSE8.7 kmh SSE 5.4 mph8.7 kmh 29.33 in993.2 mb 0.11 in2.8 mm 0.00 in0.0 mm 0.52 in13.2 mm
11:30 AM 49.6°F9.8°C 46.4°F8.0°C 88% 4.3 mph SSE6.9 kmh SSE 5.4 mph8.7 kmh 29.33 in993.2 mb 0.06 in1.5 mm 0.00 in0.0 mm 0.52 in13.2 mm
11:35 AM 49.6°F9.8°C 46.4°F8.0°C 88% 3.7 mph SE6.0 kmh SE 5.4 mph8.7 kmh 29.33 in993.2 mb 0.06 in1.5 mm 0.00 in0.0 mm 0.52 in13.2 mm
11:40 AM 49.6°F9.8°C 46.4°F8.0°C 88% 4.1 mph SE6.6 kmh SE 5.4 mph8.7 kmh 29.33 in993.2 mb 0.06 in1.5 mm 0.00 in0.0 mm 0.52 in13.2 mm
11:45 AM 49.6°F9.8°C 46.4°F8.0°C 88% 4.6 mph SSE7.4 kmh SSE 5.4 mph8.7 kmh 29.33 in993.2 mb 0.06 in1.5 mm 0.00 in0.0 mm 0.52 in13.2 mm
11:50 AM 49.6°F9.8°C 46.4°F8.0°C 88% 3.8 mph SE6.1 kmh SE 4.9 mph7.9 kmh 29.33 in993.2 mb 0.06 in1.5 mm 0.00 in0.0 mm 0.52 in13.2 mm
11:55 AM 49.6°F9.8°C 46.4°F8.0°C 88% 3.6 mph SE5.8 kmh SE 4.0 mph6.4 kmh 29.33 in993.2 mb 0.06 in1.5 mm 0.00 in0.0 mm 0.52 in13.2 mm
12:00 PM 49.6°F9.8°C 46.4°F8.0°C 88% 4.0 mph SE6.4 kmh SE 4.0 mph6.4 kmh 29.33 in993.2 mb 0.06 in1.5 mm 0.00 in0.0 mm 0.52 in13.2 mm
12:05 PM 49.6°F9.8°C 46.4°F8.0°C 88% 3.8 mph SE6.1 kmh SE 4.0 mph6.4 kmh 29.33 in993.2 mb 0.06 in1.5 mm 0.00 in0.0 mm 0.52 in13.2 mm
12:10 PM 49.8°F9.9°C 48.2°F9.0°C 89% 3.1 mph SE5.0 kmh SE 4.0 mph6.4 kmh 29.30 in992.2 mb 0.00 in0.0 mm 0.00 in0.0 mm 0.52 in13.2 mm
12:15 PM 49.8°F9.9°C 48.2°F9.0°C 89% 2.9 mph SE4.7 kmh SE 4.0 mph6.4 kmh 29.30 in992.2 mb 0.00 in0.0 mm 0.00 in0.0 mm 0.52 in13.2 mm
12:20 PM 50.0°F10.0°C 48.2°F9.0°C 89% 3.1 mph SE5.0 kmh SE 4.9 mph7.9 kmh 29.30 in992.2 mb 0.00 in0.0 mm 0.00 in0.0 mm 0.52 in13.2 mm
12:25 PM 50.2°F10.1°C 48.2°F9.0°C 89% 2.7 mph SE4.3 kmh SE 4.9 mph7.9 kmh 29.30 in992.2 mb 0.00 in0.0 mm 0.00 in0.0 mm 0.52 in13.2 mm
12:30 PM 50.2°F10.1°C 48.2°F9.0°C 89% 2.9 mph SE4.7 kmh SE 4.3 mph6.9 kmh 29.30 in992.2 mb 0.00 in0.0 mm 0.00 in0.0 mm 0.52 in13.2 mm
12:35 PM 50.2°F10.1°C 48.2°F9.0°C 89% 3.5 mph SE5.6 kmh SE 4.3 mph6.9 kmh 29.30 in992.2 mb 0.00 in0.0 mm 0.00 in0.0 mm 0.52 in13.2 mm
12:40 PM 50.4°F10.2°C 48.2°F9.0°C 89% 3.1 mph ESE5.0 kmh ESE 4.0 mph6.4 kmh 29.27 in991.2 mb 0.00 in0.0 mm 0.00 in0.0 mm 0.52 in13.2 mm
12:45 PM 50.4°F10.2°C 48.2°F9.0°C 89% 2.9 mph SE4.7 kmh SE 4.0 mph6.4 kmh 29.27 in991.2 mb 0.00 in0.0 mm 0.00 in0.0 mm 0.52 in13.2 mm
12:50 PM 50.4°F10.2°C 48.2°F9.0°C 89% 3.3 mph SE5.3 kmh SE 6.0 mph9.7 kmh 29.27 in991.2 mb 0.00 in0.0 mm 0.00 in0.0 mm 0.52 in13.2 mm
12:55 PM 50.4°F10.2°C 48.2°F9.0°C 89% 3.3 mph SE5.3 kmh SE 6.0 mph9.7 kmh 29.27 in991.2 mb 0.00 in0.0 mm 0.00 in0.0 mm 0.52 in13.2 mm
01:00 PM 50.5°F10.3°C 48.2°F9.0°C 89% 3.3 mph ESE5.3 kmh ESE 5.8 mph9.3 kmh 29.27 in991.2 mb 0.00 in0.0 mm 0.00 in0.0 mm 0.52 in13.2 mm
01:05 PM 50.5°F10.3°C 48.2°F9.0°C 89% 3.5 mph E5.6 kmh E 4.0 mph6.4 kmh 29.27 in991.2 mb 0.00 in0.0 mm 0.00 in0.0 mm 0.52 in13.2 mm
01:10 PM 50.7°F10.4°C 48.2°F9.0°C 89% 3.4 mph SE5.5 kmh SE 4.7 mph7.6 kmh 29.27 in991.2 mb 0.00 in0.0 mm 0.00 in0.0 mm 0.52 in13.2 mm
01:15 PM 50.7°F10.4°C 48.2°F9.0°C 90% 2.9 mph SE4.7 kmh SE 4.7 mph7.6 kmh 29.27 in991.2 mb 0.00 in0.0 mm 0.00 in0.0 mm 0.52 in13.2 mm
01:20 PM 50.9°F10.5°C 48.2°F9.0°C 90% 2.7 mph SE4.3 kmh SE 4.0 mph6.4 kmh 29.27 in991.2 mb 0.00 in0.0 mm 0.00 in0.0 mm 0.52 in13.2 mm
01:25 PM 50.9°F10.5°C 48.2°F9.0°C 90% 2.3 mph SE3.7 kmh SE 4.0 mph6.4 kmh 29.24 in990.2 mb 0.00 in0.0 mm 0.00 in0.0 mm 0.52 in13.2 mm
01:30 PM 51.1°F10.6°C 48.2°F9.0°C 90% 1.2 mph SE1.9 kmh SE 2.5 mph4.0 kmh 29.24 in990.2 mb 0.00 in0.0 mm 0.00 in0.0 mm 0.52 in13.2 mm
01:35 PM 51.1°F10.6°C 48.2°F9.0°C 90% 0.9 mph SE1.4 kmh SE 2.0 mph3.2 kmh 29.24 in990.2 mb 0.00 in0.0 mm 0.00 in0.0 mm 0.52 in13.2 mm
01:40 PM 51.3°F10.7°C 48.2°F9.0°C 90% 0.7 mph SSE1.1 kmh SSE 2.2 mph3.5 kmh 29.24 in990.2 mb 0.00 in0.0 mm 0.00 in0.0 mm 0.52 in13.2 mm
01:45 PM 51.3°F10.7°C 48.2°F9.0°C 90% 1.1 mph SE1.8 kmh SE 2.2 mph3.5 kmh 29.24 in990.2 mb 0.00 in0.0 mm 0.00 in0.0 mm 0.52 in13.2 mm
01:50 PM 51.4°F10.8°C 48.2°F9.0°C 90% 1.4 mph SSE2.3 kmh SSE 2.9 mph4.7 kmh 29.24 in990.2 mb 0.00 in0.0 mm 0.00 in0.0 mm 0.52 in13.2 mm
01:55 PM 51.6°F10.9°C 48.2°F9.0°C 90% 2.3 mph SSE3.7 kmh SSE 4.3 mph6.9 kmh 29.24 in990.2 mb 0.00 in0.0 mm 0.00 in0.0 mm 0.52 in13.2 mm
02:00 PM 51.8°F11.0°C 48.2°F9.0°C 90% 2.3 mph SSE3.7 kmh SSE 4.3 mph6.9 kmh 29.24 in990.2 mb 0.00 in0.0 mm 0.00 in0.0 mm 0.52 in13.2 mm
02:05 PM 52.0°F11.1°C 48.2°F9.0°C 90% 1.8 mph SSE2.9 kmh SSE 3.4 mph5.5 kmh 29.24 in990.2 mb 0.00 in0.0 mm 0.00 in0.0 mm 0.52 in13.2 mm
02:10 PM 52.2°F11.2°C 50.0°F10.0°C 90% 2.4 mph S3.9 kmh S 3.8 mph6.1 kmh 29.24 in990.2 mb 0.00 in0.0 mm 0.00 in0.0 mm 0.52 in13.2 mm
02:15 PM 52.5°F11.4°C 50.0°F10.0°C 90% 3.1 mph SSE5.0 kmh SSE 3.8 mph6.1 kmh 29.24 in990.2 mb 0.00 in0.0 mm 0.00 in0.0 mm 0.52 in13.2 mm
02:20 PM 52.7°F11.5°C 50.0°F10.0°C 90% 3.8 mph SE6.1 kmh SE 5.4 mph8.7 kmh 29.24 in990.2 mb 0.00 in0.0 mm 0.00 in0.0 mm 0.52 in13.2 mm
02:25 PM 52.9°F11.6°C 50.0°F10.0°C 90% 3.9 mph SSE6.3 kmh SSE 5.4 mph8.7 kmh 29.21 in989.2 mb 0.00 in0.0 mm 0.00 in0.0 mm 0.52 in13.2 mm
02:30 PM 52.9°F11.6°C 50.0°F10.0°C 90% 5.1 mph SSE8.2 kmh SSE 8.5 mph13.7 kmh 29.21 in989.2 mb 0.00 in0.0 mm 0.00 in0.0 mm 0.52 in13.2 mm
02:35 PM 53.1°F11.7°C 50.0°F10.0°C 89% 6.7 mph S10.8 kmh S 10.1 mph16.3 kmh 29.21 in989.2 mb 0.00 in0.0 mm 0.00 in0.0 mm 0.52 in13.2 mm
02:40 PM 53.1°F11.7°C 50.0°F10.0°C 89% 6.2 mph S10.0 kmh S 10.1 mph16.3 kmh 29.21 in989.2 mb 0.00 in0.0 mm 0.00 in0.0 mm 0.52 in13.2 mm
02:45 PM 53.2°F11.8°C 50.0°F10.0°C 90% 4.0 mph SSE6.4 kmh SSE 5.8 mph9.3 kmh 29.21 in989.2 mb 0.00 in0.0 mm 0.00 in0.0 mm 0.52 in13.2 mm
02:50 PM 53.2°F11.8°C 50.0°F10.0°C 89% 5.3 mph S8.5 kmh S 11.0 mph17.7 kmh 29.21 in989.2 mb 0.00 in0.0 mm 0.00 in0.0 mm 0.52 in13.2 mm
02:55 PM 53.4°F11.9°C 50.0°F10.0°C 90% 6.3 mph SSE10.1 kmh SSE 11.0 mph17.7 kmh 29.18 in988.1 mb 0.00 in0.0 mm 0.00 in0.0 mm 0.52 in13.2 mm
03:00 PM 53.4°F11.9°C 50.0°F10.0°C 90% 4.3 mph SE6.9 kmh SE 6.3 mph10.1 kmh 29.18 in988.1 mb 0.00 in0.0 mm 0.00 in0.0 mm 0.52 in13.2 mm
03:05 PM 53.4°F11.9°C 50.0°F10.0°C 90% 3.3 mph SE5.3 kmh SE 6.3 mph10.1 kmh 29.18 in988.1 mb 0.00 in0.0 mm 0.00 in0.0 mm 0.52 in13.2 mm
03:10 PM 53.4°F11.9°C 50.0°F10.0°C 90% 4.1 mph SSE6.6 kmh SSE 10.7 mph17.2 kmh 29.18 in988.1 mb 0.00 in0.0 mm 0.00 in0.0 mm 0.52 in13.2 mm
03:15 PM 53.4°F11.9°C 50.0°F10.0°C 90% 4.2 mph SSE6.8 kmh SSE 10.7 mph17.2 kmh 29.18 in988.1 mb 0.00 in0.0 mm 0.00 in0.0 mm 0.52 in13.2 mm
03:20 PM 53.4°F11.9°C 50.0°F10.0°C 90% 3.4 mph SE5.5 kmh SE 5.8 mph9.3 kmh 29.18 in988.1 mb 0.00 in0.0 mm 0.00 in0.0 mm 0.52 in13.2 mm
03:25 PM 53.4°F11.9°C 50.0°F10.0°C 90% 3.3 mph SSE5.3 kmh SSE 5.8 mph9.3 kmh 29.18 in988.1 mb 0.00 in0.0 mm 0.00 in0.0 mm 0.52 in13.2 mm
03:30 PM 53.4°F11.9°C 50.0°F10.0°C 90% 3.4 mph SSE5.5 kmh SSE 5.8 mph9.3 kmh 29.18 in988.1 mb 0.00 in0.0 mm 0.00 in0.0 mm 0.52 in13.2 mm
03:35 PM 53.4°F11.9°C 50.0°F10.0°C 90% 3.1 mph SSE5.0 kmh SSE 4.3 mph6.9 kmh 29.18 in988.1 mb 0.00 in0.0 mm 0.00 in0.0 mm 0.52 in13.2 mm
03:40 PM 53.4°F11.9°C 50.0°F10.0°C 90% 2.9 mph SSE4.7 kmh SSE 4.3 mph6.9 kmh 29.15 in987.1 mb 0.00 in0.0 mm 0.00 in0.0 mm 0.52 in13.2 mm
03:45 PM 53.2°F11.8°C 50.0°F10.0°C 90% 3.0 mph SSE4.8 kmh SSE 4.9 mph7.9 kmh 29.15 in987.1 mb 0.00 in0.0 mm 0.00 in0.0 mm 0.52 in13.2 mm
03:50 PM 53.2°F11.8°C 50.0°F10.0°C 90% 3.2 mph SE5.1 kmh SE 4.9 mph7.9 kmh 29.15 in987.1 mb 0.00 in0.0 mm 0.00 in0.0 mm 0.52 in13.2 mm
03:55 PM 53.2°F11.8°C 50.0°F10.0°C 90% 2.9 mph SE4.7 kmh SE 4.7 mph7.6 kmh 29.15 in987.1 mb 0.00 in0.0 mm 0.00 in0.0 mm 0.52 in13.2 mm
04:00 PM 53.2°F11.8°C 50.0°F10.0°C 90% 2.3 mph SSE3.7 kmh SSE 3.8 mph6.1 kmh 29.15 in987.1 mb 0.00 in0.0 mm 0.00 in0.0 mm 0.52 in13.2 mm
04:05 PM 53.2°F11.8°C 50.0°F10.0°C 90% 2.6 mph SE4.2 kmh SE 3.8 mph6.1 kmh 29.15 in987.1 mb 0.00 in0.0 mm 0.00 in0.0 mm 0.52 in13.2 mm
04:10 PM 53.1°F11.7°C 50.0°F10.0°C 90% 2.7 mph SSE4.3 kmh SSE 4.0 mph6.4 kmh 29.15 in987.1 mb 0.00 in0.0 mm 0.00 in0.0 mm 0.52 in13.2 mm
04:15 PM 53.1°F11.7°C 50.0°F10.0°C 90% 2.2 mph SE3.5 kmh SE 4.0 mph6.4 kmh 29.15 in987.1 mb 0.00 in0.0 mm 0.00 in0.0 mm 0.52 in13.2 mm
04:20 PM 53.1°F11.7°C 50.0°F10.0°C 90% 1.9 mph SE3.1 kmh SE 4.0 mph6.4 kmh 29.15 in987.1 mb 0.00 in0.0 mm 0.00 in0.0 mm 0.52 in13.2 mm
04:25 PM 53.1°F11.7°C 50.0°F10.0°C 90% 2.1 mph SSE3.4 kmh SSE 4.0 mph6.4 kmh 29.15 in987.1 mb 0.00 in0.0 mm 0.00 in0.0 mm 0.52 in13.2 mm
04:30 PM 52.9°F11.6°C 50.0°F10.0°C 90% 2.6 mph SE4.2 kmh SE 4.0 mph6.4 kmh 29.15 in987.1 mb 0.00 in0.0 mm 0.00 in0.0 mm 0.52 in13.2 mm
04:35 PM 52.9°F11.6°C 50.0°F10.0°C 90% 3.0 mph ESE4.8 kmh ESE 3.6 mph5.8 kmh 29.15 in987.1 mb 0.00 in0.0 mm 0.00 in0.0 mm 0.52 in13.2 mm
04:40 PM 52.9°F11.6°C 50.0°F10.0°C 90% 2.7 mph ESE4.3 kmh ESE 4.0 mph6.4 kmh 29.15 in987.1 mb 0.00 in0.0 mm 0.00 in0.0 mm 0.52 in13.2 mm
04:45 PM 52.9°F11.6°C 50.0°F10.0°C 90% 2.9 mph SE4.7 kmh SE 4.9 mph7.9 kmh 29.15 in987.1 mb 0.00 in0.0 mm 0.00 in0.0 mm 0.52 in13.2 mm
04:50 PM 52.9°F11.6°C 50.0°F10.0°C 90% 3.0 mph SSE4.8 kmh SSE 4.9 mph7.9 kmh 29.15 in987.1 mb 0.00 in0.0 mm 0.00 in0.0 mm 0.52 in13.2 mm
04:55 PM 52.9°F11.6°C 50.0°F10.0°C 90% 2.9 mph SSE4.7 kmh SSE 4.9 mph7.9 kmh 29.15 in987.1 mb 0.00 in0.0 mm 0.00 in0.0 mm 0.52 in13.2 mm
05:00 PM 52.9°F11.6°C 50.0°F10.0°C 90% 2.7 mph SSE4.3 kmh SSE 3.6 mph5.8 kmh 29.15 in987.1 mb 0.00 in0.0 mm 0.00 in0.0 mm 0.52 in13.2 mm
05:05 PM 52.7°F11.5°C 50.0°F10.0°C 90% 3.3 mph SE5.3 kmh SE 5.4 mph8.7 kmh 29.15 in987.1 mb 0.00 in0.0 mm 0.00 in0.0 mm 0.52 in13.2 mm
05:10 PM 52.7°F11.5°C 50.0°F10.0°C 90% 3.2 mph SE5.1 kmh SE 5.4 mph8.7 kmh 29.15 in987.1 mb 0.00 in0.0 mm 0.00 in0.0 mm 0.52 in13.2 mm
05:15 PM 52.7°F11.5°C 50.0°F10.0°C 91% 2.8 mph SE4.5 kmh SE 4.3 mph6.9 kmh 29.15 in987.1 mb 0.00 in0.0 mm 0.00 in0.0 mm 0.52 in13.2 mm
05:20 PM 52.9°F11.6°C 50.0°F10.0°C 91% 2.7 mph SE4.3 kmh SE 3.8 mph6.1 kmh 29.15 in987.1 mb 0.00 in0.0 mm 0.00 in0.0 mm 0.52 in13.2 mm
05:25 PM 52.9°F11.6°C 50.0°F10.0°C 91% 2.7 mph SE4.3 kmh SE 3.8 mph6.1 kmh 29.12 in986.1 mb 0.00 in0.0 mm 0.00 in0.0 mm 0.52 in13.2 mm
05:30 PM 52.9°F11.6°C 50.0°F10.0°C 91% 3.1 mph SE5.0 kmh SE 5.4 mph8.7 kmh 29.12 in986.1 mb 0.00 in0.0 mm 0.00 in0.0 mm 0.52 in13.2 mm
05:35 PM 52.9°F11.6°C 50.0°F10.0°C 91% 3.5 mph SE5.6 kmh SE 5.4 mph8.7 kmh 29.12 in986.1 mb 0.00 in0.0 mm 0.00 in0.0 mm 0.52 in13.2 mm
05:40 PM 52.9°F11.6°C 50.0°F10.0°C 91% 3.9 mph SE6.3 kmh SE 5.8 mph9.3 kmh 29.12 in986.1 mb 0.00 in0.0 mm 0.00 in0.0 mm 0.52 in13.2 mm
05:45 PM 52.9°F11.6°C 50.0°F10.0°C 91% 3.8 mph SE6.1 kmh SE 5.8 mph9.3 kmh 29.12 in986.1 mb 0.00 in0.0 mm 0.00 in0.0 mm 0.52 in13.2 mm
05:50 PM 52.9°F11.6°C 50.0°F10.0°C 91% 3.7 mph SE6.0 kmh SE 4.3 mph6.9 kmh 29.12 in986.1 mb 0.00 in0.0 mm 0.00 in0.0 mm 0.52 in13.2 mm
05:55 PM 52.9°F11.6°C 50.0°F10.0°C 91% 3.8 mph SE6.1 kmh SE 4.3 mph6.9 kmh 29.12 in986.1 mb 0.00 in0.0 mm 0.00 in0.0 mm 0.52 in13.2 mm
06:00 PM 52.9°F11.6°C 50.0°F10.0°C 91% 3.8 mph SE6.1 kmh SE 4.3 mph6.9 kmh 29.12 in986.1 mb 0.00 in0.0 mm 0.00 in0.0 mm 0.52 in13.2 mm
06:05 PM 52.9°F11.6°C 50.0°F10.0°C 91% 3.8 mph SE6.1 kmh SE 4.3 mph6.9 kmh 29.12 in986.1 mb 0.00 in0.0 mm 0.00 in0.0 mm 0.52 in13.2 mm
06:10 PM 52.9°F11.6°C 50.0°F10.0°C 91% 4.0 mph SE6.4 kmh SE 6.5 mph10.5 kmh 29.09 in985.1 mb 0.00 in0.0 mm 0.00 in0.0 mm 0.52 in13.2 mm
06:15 PM 52.9°F11.6°C 50.0°F10.0°C 91% 4.3 mph SE6.9 kmh SE 6.5 mph10.5 kmh 29.09 in985.1 mb 0.00 in0.0 mm 0.00 in0.0 mm 0.52 in13.2 mm
06:20 PM 53.1°F11.7°C 50.0°F10.0°C 91% 4.5 mph SE7.2 kmh SE 5.6 mph9.0 kmh 29.09 in985.1 mb 0.00 in0.0 mm 0.00 in0.0 mm 0.52 in13.2 mm
06:25 PM 52.9°F11.6°C 50.0°F10.0°C 91% 4.7 mph SE7.6 kmh SE 5.6 mph9.0 kmh 29.09 in985.1 mb 0.00 in0.0 mm 0.00 in0.0 mm 0.52 in13.2 mm
06:30 PM 53.1°F11.7°C 50.0°F10.0°C 91% 4.6 mph SE7.4 kmh SE 6.3 mph10.1 kmh 29.09 in985.1 mb 0.00 in0.0 mm 0.00 in0.0 mm 0.52 in13.2 mm
06:35 PM 53.1°F11.7°C 50.0°F10.0°C 91% 5.0 mph SE8.0 kmh SE 6.5 mph10.5 kmh 29.09 in985.1 mb 0.00 in0.0 mm 0.00 in0.0 mm 0.52 in13.2 mm
06:40 PM 53.1°F11.7°C 50.0°F10.0°C 91% 4.8 mph SE7.7 kmh SE 6.5 mph10.5 kmh 29.09 in985.1 mb 0.00 in0.0 mm 0.00 in0.0 mm 0.52 in13.2 mm
06:45 PM 53.1°F11.7°C 50.0°F10.0°C 91% 4.9 mph SE7.9 kmh SE 6.3 mph10.1 kmh 29.09 in985.1 mb 0.00 in0.0 mm 0.00 in0.0 mm 0.52 in13.2 mm
06:50 PM 53.1°F11.7°C 50.0°F10.0°C 91% 5.1 mph SE8.2 kmh SE 6.3 mph10.1 kmh 29.09 in985.1 mb 0.00 in0.0 mm 0.00 in0.0 mm 0.52 in13.2 mm
06:55 PM 53.1°F11.7°C 50.0°F10.0°C 91% 4.5 mph SE7.2 kmh SE 5.4 mph8.7 kmh 29.09 in985.1 mb 0.00 in0.0 mm 0.00 in0.0 mm 0.52 in13.2 mm
07:00 PM 53.1°F11.7°C 50.0°F10.0°C 91% 4.1 mph SE6.6 kmh SE 4.9 mph7.9 kmh 29.09 in985.1 mb 0.00 in0.0 mm 0.00 in0.0 mm 0.52 in13.2 mm
07:05 PM 53.1°F11.7°C 50.0°F10.0°C 91% 3.9 mph SE6.3 kmh SE 4.9 mph7.9 kmh 29.09 in985.1 mb 0.00 in0.0 mm 0.00 in0.0 mm 0.52 in13.2 mm
07:10 PM 53.1°F11.7°C 50.0°F10.0°C 91% 3.7 mph SE6.0 kmh SE 4.3 mph6.9 kmh 29.09 in985.1 mb 0.00 in0.0 mm 0.00 in0.0 mm 0.52 in13.2 mm
07:15 PM 53.1°F11.7°C 50.0°F10.0°C 91% 3.4 mph SSE5.5 kmh SSE 3.8 mph6.1 kmh 29.09 in985.1 mb 0.00 in0.0 mm 0.00 in0.0 mm 0.52 in13.2 mm
07:20 PM 53.1°F11.7°C 50.0°F10.0°C 91% 3.2 mph SE5.1 kmh SE 3.8 mph6.1 kmh 29.09 in985.1 mb 0.00 in0.0 mm 0.00 in0.0 mm 0.52 in13.2 mm
07:25 PM 53.1°F11.7°C 50.0°F10.0°C 91% 2.9 mph SE4.7 kmh SE 4.3 mph6.9 kmh 29.06 in984.1 mb 0.00 in0.0 mm 0.00 in0.0 mm 0.52 in13.2 mm
07:30 PM 53.2°F11.8°C 50.0°F10.0°C 91% 3.0 mph SSE4.8 kmh SSE 5.4 mph8.7 kmh 29.06 in984.1 mb 0.00 in0.0 mm 0.00 in0.0 mm 0.52 in13.2 mm
07:35 PM 53.2°F11.8°C 50.0°F10.0°C 91% 2.9 mph SSE4.7 kmh SSE 5.4 mph8.7 kmh 29.06 in984.1 mb 0.00 in0.0 mm 0.00 in0.0 mm 0.52 in13.2 mm
07:40 PM 53.2°F11.8°C 50.0°F10.0°C 91% 2.8 mph SSE4.5 kmh SSE 3.8 mph6.1 kmh 29.06 in984.1 mb 0.00 in0.0 mm 0.00 in0.0 mm 0.52 in13.2 mm
07:45 PM 53.4°F11.9°C 51.8°F11.0°C 91% 3.5 mph SSE5.6 kmh SSE 7.4 mph11.9 kmh 29.06 in984.1 mb 0.00 in0.0 mm 0.00 in0.0 mm 0.52 in13.2 mm
07:50 PM 53.4°F11.9°C 51.8°F11.0°C 91% 3.8 mph SSE6.1 kmh SSE 7.4 mph11.9 kmh 29.06 in984.1 mb 0.00 in0.0 mm 0.00 in0.0 mm 0.52 in13.2 mm
07:55 PM 53.2°F11.8°C 50.0°F10.0°C 91% 3.5 mph SE5.6 kmh SE 7.4 mph11.9 kmh 29.03 in983.1 mb 0.00 in0.0 mm 0.00 in0.0 mm 0.52 in13.2 mm
08:00 PM 53.2°F11.8°C 50.0°F10.0°C 91% 3.1 mph SSE5.0 kmh SSE 5.8 mph9.3 kmh 29.03 in983.1 mb 0.00 in0.0 mm 0.00 in0.0 mm 0.52 in13.2 mm
08:05 PM 53.4°F11.9°C 51.8°F11.0°C 91% 3.9 mph SSE6.3 kmh SSE 6.5 mph10.5 kmh 29.03 in983.1 mb 0.00 in0.0 mm 0.00 in0.0 mm 0.52 in13.2 mm
08:10 PM 53.2°F11.8°C 50.0°F10.0°C 91% 4.1 mph SSE6.6 kmh SSE 6.5 mph10.5 kmh 29.03 in983.1 mb 0.00 in0.0 mm 0.00 in0.0 mm 0.52 in13.2 mm
08:15 PM 53.1°F11.7°C 50.0°F10.0°C 91% 3.8 mph SSE6.1 kmh SSE 5.8 mph9.3 kmh 29.03 in983.1 mb 0.00 in0.0 mm 0.00 in0.0 mm 0.52 in13.2 mm
08:20 PM 52.9°F11.6°C 50.0°F10.0°C 91% 4.3 mph SE6.9 kmh SE 5.8 mph9.3 kmh 29.03 in983.1 mb 0.00 in0.0 mm 0.00 in0.0 mm 0.52 in13.2 mm
08:25 PM 53.1°F11.7°C 50.0°F10.0°C 91% 4.1 mph SE6.6 kmh SE 5.8 mph9.3 kmh 29.03 in983.1 mb 0.00 in0.0 mm 0.00 in0.0 mm 0.52 in13.2 mm
08:30 PM 53.1°F11.7°C 50.0°F10.0°C 91% 3.7 mph SSE6.0 kmh SSE 5.8 mph9.3 kmh 29.03 in983.1 mb 0.00 in0.0 mm 0.00 in0.0 mm 0.52 in13.2 mm
08:35 PM 52.9°F11.6°C 50.0°F10.0°C 91% 3.5 mph SSE5.6 kmh SSE 5.4 mph8.7 kmh 29.03 in983.1 mb 0.00 in0.0 mm 0.00 in0.0 mm 0.52 in13.2 mm
08:40 PM 52.9°F11.6°C 50.0°F10.0°C 91% 2.9 mph SSE4.7 kmh SSE 3.6 mph5.8 kmh 29.03 in983.1 mb 0.00 in0.0 mm 0.00 in0.0 mm 0.52 in13.2 mm
08:45 PM 52.9°F11.6°C 50.0°F10.0°C 91% 2.5 mph SSE4.0 kmh SSE 3.6 mph5.8 kmh 29.03 in983.1 mb 0.00 in0.0 mm 0.00 in0.0 mm 0.52 in13.2 mm
08:50 PM 53.1°F11.7°C 50.0°F10.0°C 91% 2.8 mph SSE4.5 kmh SSE 4.0 mph6.4 kmh 29.03 in983.1 mb 0.00 in0.0 mm 0.00 in0.0 mm 0.52 in13.2 mm
08:55 PM 53.1°F11.7°C 50.0°F10.0°C 91% 3.8 mph SSE6.1 kmh SSE 6.0 mph9.7 kmh 29.03 in983.1 mb 0.00 in0.0 mm 0.00 in0.0 mm 0.52 in13.2 mm
09:00 PM 53.1°F11.7°C 50.0°F10.0°C 91% 4.1 mph SSE6.6 kmh SSE 6.0 mph9.7 kmh 29.03 in983.1 mb 0.00 in0.0 mm 0.00 in0.0 mm 0.52 in13.2 mm
09:05 PM 53.1°F11.7°C 50.0°F10.0°C 91% 3.8 mph SE6.1 kmh SE 6.0 mph9.7 kmh 29.03 in983.1 mb 0.00 in0.0 mm 0.00 in0.0 mm 0.52 in13.2 mm
09:10 PM 53.1°F11.7°C 50.0°F10.0°C 91% 4.4 mph SE7.1 kmh SE 6.0 mph9.7 kmh 29.00 in982.1 mb 0.00 in0.0 mm 0.00 in0.0 mm 0.52 in13.2 mm
09:15 PM 53.1°F11.7°C 50.0°F10.0°C 91% 3.9 mph SE6.3 kmh SE 4.9 mph7.9 kmh 29.00 in982.1 mb 0.00 in0.0 mm 0.00 in0.0 mm 0.52 in13.2 mm
09:20 PM 53.1°F11.7°C 50.0°F10.0°C 91% 3.3 mph SE5.3 kmh SE 4.0 mph6.4 kmh 29.00 in982.1 mb 0.00 in0.0 mm 0.00 in0.0 mm 0.52 in13.2 mm
09:25 PM 53.1°F11.7°C 50.0°F10.0°C 91% 3.3 mph SE5.3 kmh SE 4.3 mph6.9 kmh 29.00 in982.1 mb 0.00 in0.0 mm 0.00 in0.0 mm 0.52 in13.2 mm
09:30 PM 53.1°F11.7°C 50.0°F10.0°C 91% 3.3 mph SE5.3 kmh SE 4.9 mph7.9 kmh 29.00 in982.1 mb 0.00 in0.0 mm 0.00 in0.0 mm 0.52 in13.2 mm
09:35 PM 53.1°F11.7°C 50.0°F10.0°C 91% 3.3 mph SE5.3 kmh SE 4.9 mph7.9 kmh 29.00 in982.1 mb 0.00 in0.0 mm 0.00 in0.0 mm 0.52 in13.2 mm
09:40 PM 53.1°F11.7°C 50.0°F10.0°C 91% 3.3 mph SE5.3 kmh SE 4.0 mph6.4 kmh 29.00 in982.1 mb 0.00 in0.0 mm 0.00 in0.0 mm 0.52 in13.2 mm
09:45 PM 53.1°F11.7°C 50.0°F10.0°C 91% 3.1 mph SE5.0 kmh SE 4.0 mph6.4 kmh 29.00 in982.1 mb 0.00 in0.0 mm 0.00 in0.0 mm 0.52 in13.2 mm
09:50 PM 53.1°F11.7°C 50.0°F10.0°C 91% 2.8 mph SE4.5 kmh SE 3.8 mph6.1 kmh 29.00 in982.1 mb 0.00 in0.0 mm 0.00 in0.0 mm 0.52 in13.2 mm
09:55 PM 53.1°F11.7°C 50.0°F10.0°C 91% 2.9 mph SE4.7 kmh SE 4.7 mph7.6 kmh 28.97 in981.0 mb 0.00 in0.0 mm 0.00 in0.0 mm 0.52 in13.2 mm
10:00 PM 53.1°F11.7°C 50.0°F10.0°C 91% 3.6 mph SE5.8 kmh SE 4.7 mph7.6 kmh 28.97 in981.0 mb 0.00 in0.0 mm 0.00 in0.0 mm 0.52 in13.2 mm
10:05 PM 53.1°F11.7°C 50.0°F10.0°C 91% 4.1 mph SE6.6 kmh SE 4.7 mph7.6 kmh 28.97 in981.0 mb 0.06 in1.5 mm 0.72 in18.3 mm 0.57 in14.5 mm
10:10 PM 53.1°F11.7°C 50.0°F10.0°C 91% 3.9 mph SE6.3 kmh SE 4.7 mph7.6 kmh 28.94 in980.0 mb 0.06 in1.5 mm 0.00 in0.0 mm 0.57 in14.5 mm
10:15 PM 53.1°F11.7°C 50.0°F10.0°C 91% 4.0 mph SE6.4 kmh SE 6.3 mph10.1 kmh 28.94 in980.0 mb 0.06 in1.5 mm 0.00 in0.0 mm 0.57 in14.5 mm
10:20 PM 53.1°F11.7°C 50.0°F10.0°C 91% 4.0 mph SE6.4 kmh SE 6.3 mph10.1 kmh 28.94 in980.0 mb 0.06 in1.5 mm 0.00 in0.0 mm 0.57 in14.5 mm
10:25 PM 53.1°F11.7°C 50.0°F10.0°C 91% 3.6 mph SE5.8 kmh SE 4.3 mph6.9 kmh 28.94 in980.0 mb 0.06 in1.5 mm 0.00 in0.0 mm 0.57 in14.5 mm
10:30 PM 52.9°F11.6°C 50.0°F10.0°C 91% 3.4 mph SE5.5 kmh SE 4.3 mph6.9 kmh 28.94 in980.0 mb 0.06 in1.5 mm 0.00 in0.0 mm 0.57 in14.5 mm
10:35 PM 52.9°F11.6°C 50.0°F10.0°C 91% 3.5 mph SE5.6 kmh SE 4.9 mph7.9 kmh 28.94 in980.0 mb 0.06 in1.5 mm 0.00 in0.0 mm 0.57 in14.5 mm
10:40 PM 52.9°F11.6°C 50.0°F10.0°C 91% 3.8 mph SE6.1 kmh SE 5.6 mph9.0 kmh 28.94 in980.0 mb 0.06 in1.5 mm 0.00 in0.0 mm 0.57 in14.5 mm
10:45 PM 52.9°F11.6°C 50.0°F10.0°C 91% 4.1 mph SE6.6 kmh SE 5.6 mph9.0 kmh 28.94 in980.0 mb 0.06 in1.5 mm 0.00 in0.0 mm 0.57 in14.5 mm
10:50 PM 52.9°F11.6°C 50.0°F10.0°C 91% 4.1 mph SE6.6 kmh SE 5.4 mph8.7 kmh 28.94 in980.0 mb 0.06 in1.5 mm 0.00 in0.0 mm 0.57 in14.5 mm
10:55 PM 52.9°F11.6°C 50.0°F10.0°C 91% 4.6 mph SE7.4 kmh SE 6.5 mph10.5 kmh 28.91 in979.0 mb 0.06 in1.5 mm 0.00 in0.0 mm 0.57 in14.5 mm
11:00 PM 52.9°F11.6°C 50.0°F10.0°C 91% 5.2 mph SE8.4 kmh SE 6.5 mph10.5 kmh 28.91 in979.0 mb 0.06 in1.5 mm 0.00 in0.0 mm 0.57 in14.5 mm
11:05 PM 52.9°F11.6°C 50.0°F10.0°C 91% 4.9 mph SE7.9 kmh SE 6.3 mph10.1 kmh 28.91 in979.0 mb 0.00 in0.0 mm 0.00 in0.0 mm 0.57 in14.5 mm
11:10 PM 53.1°F11.7°C 50.0°F10.0°C 91% 5.0 mph SE8.0 kmh SE 7.8 mph12.6 kmh 28.91 in979.0 mb 0.00 in0.0 mm 0.00 in0.0 mm 0.57 in14.5 mm
11:15 PM 53.1°F11.7°C 50.0°F10.0°C 91% 5.0 mph SE8.0 kmh SE 7.8 mph12.6 kmh 28.91 in979.0 mb 0.00 in0.0 mm 0.00 in0.0 mm 0.57 in14.5 mm
11:20 PM 53.1°F11.7°C 50.0°F10.0°C 91% 4.8 mph SE7.7 kmh SE 6.3 mph10.1 kmh 28.91 in979.0 mb 0.00 in0.0 mm 0.00 in0.0 mm 0.57 in14.5 mm
11:25 PM 53.1°F11.7°C 50.0°F10.0°C 91% 5.3 mph SE8.5 kmh SE 7.4 mph11.9 kmh 28.91 in979.0 mb 0.00 in0.0 mm 0.00 in0.0 mm 0.57 in14.5 mm
11:30 PM 53.1°F11.7°C 50.0°F10.0°C 91% 5.4 mph SE8.7 kmh SE 7.4 mph11.9 kmh 28.91 in979.0 mb 0.06 in1.5 mm 0.72 in18.3 mm 0.63 in16.0 mm
11:35 PM 53.1°F11.7°C 50.0°F10.0°C 92% 5.5 mph SE8.9 kmh SE 8.5 mph13.7 kmh 28.91 in979.0 mb 0.06 in1.5 mm 0.00 in0.0 mm 0.63 in16.0 mm
11:40 PM 53.1°F11.7°C 50.0°F10.0°C 92% 6.3 mph SE10.1 kmh SE 8.5 mph13.7 kmh 28.88 in978.0 mb 0.06 in1.5 mm 0.00 in0.0 mm 0.63 in16.0 mm
11:45 PM 53.1°F11.7°C 50.0°F10.0°C 92% 6.2 mph SE10.0 kmh SE 8.1 mph13.0 kmh 28.88 in978.0 mb 0.06 in1.5 mm 0.00 in0.0 mm 0.63 in16.0 mm
11:50 PM 53.1°F11.7°C 50.0°F10.0°C 92% 6.5 mph SE10.5 kmh SE 9.8 mph15.8 kmh 28.88 in978.0 mb 0.11 in2.8 mm 0.60 in15.2 mm 0.69 in17.5 mm
11:55 PM 53.1°F11.7°C 50.0°F10.0°C 92% 5.8 mph SE9.3 kmh SE 9.8 mph15.8 kmh 28.88 in978.0 mb 0.11 in2.8 mm 0.00 in0.0 mm 0.69 in17.5 mm